createdAt,value
2019-01-22T00:02:14.691Z,57.20
2019-01-22T00:04:43.376Z,57.00
2019-01-22T00:07:11.979Z,57.20
2019-01-22T00:09:40.948Z,56.90
2019-01-22T00:12:09.548Z,56.80
2019-01-22T00:14:38.133Z,57.00
2019-01-22T00:17:06.799Z,56.90
2019-01-22T00:19:35.639Z,56.90
2019-01-22T00:22:04.233Z,56.60
2019-01-22T00:24:33.343Z,56.80
2019-01-22T00:27:01.906Z,56.70
2019-01-22T00:29:30.577Z,56.60
2019-01-22T00:31:59.233Z,56.50
2019-01-22T00:34:27.844Z,56.50
2019-01-22T00:36:56.465Z,56.70
2019-01-22T00:39:25.130Z,56.70
2019-01-22T00:41:53.963Z,56.60
2019-01-22T00:44:22.556Z,56.60
2019-01-22T00:46:51.131Z,56.70
2019-01-22T00:49:19.742Z,56.70
2019-01-22T00:51:48.872Z,56.90
2019-01-22T00:54:17.499Z,56.80
2019-01-22T00:56:46.115Z,56.90
2019-01-22T00:59:14.699Z,56.90
2019-01-22T01:01:43.311Z,57.10
2019-01-22T01:04:12.167Z,57.20
2019-01-22T01:06:41.062Z,57.30
2019-01-22T01:09:09.728Z,57.20
2019-01-22T01:11:38.357Z,57.20
2019-01-22T01:14:06.964Z,57.20
2019-01-22T01:16:35.820Z,57.40
2019-01-22T01:19:04.405Z,57.50
2019-01-22T01:21:33.015Z,57.60
2019-01-22T01:24:01.632Z,57.50
2019-01-22T01:26:32.024Z,57.70
2019-01-22T01:29:00.891Z,57.80
2019-01-22T01:31:29.555Z,57.70
2019-01-22T01:33:58.821Z,57.80
2019-01-22T01:36:27.476Z,57.80
2019-01-22T01:38:56.059Z,57.70
2019-01-22T01:41:24.909Z,57.80
2019-01-22T01:43:53.600Z,57.80
2019-01-22T01:46:22.254Z,57.80
2019-01-22T01:48:51.211Z,57.60
2019-01-22T01:51:19.798Z,57.70
2019-01-22T01:53:48.676Z,57.70
2019-01-22T01:56:17.325Z,57.60
2019-01-22T01:58:45.988Z,57.60
2019-01-22T02:01:14.916Z,57.50
2019-01-22T02:07:15.660Z,57.60
2019-01-22T02:09:44.593Z,57.40
2019-01-22T02:12:13.365Z,57.40
2019-01-22T02:14:52.471Z,57.30
2019-01-22T02:17:43.624Z,57.20
2019-01-22T02:20:40.241Z,57.20
2019-01-22T02:23:34.509Z,57.20
2019-01-22T02:26:36.264Z,57.20
2019-01-22T02:29:13.061Z,57.00
2019-01-22T02:32:30.826Z,56.90
2019-01-22T02:35:23.872Z,57.00
2019-01-22T02:38:22.882Z,57.00
2019-01-22T02:41:19.770Z,57.10
2019-01-22T02:44:37.656Z,57.10
2019-01-22T02:47:30.815Z,56.90
2019-01-22T02:50:31.000Z,56.80
2019-01-22T02:53:05.796Z,56.70
2019-01-22T02:55:40.420Z,56.70
2019-01-22T02:58:19.519Z,56.70
2019-01-22T03:01:01.861Z,56.70
2019-01-22T03:03:43.498Z,56.50
2019-01-22T03:06:56.935Z,56.40
2019-01-22T03:10:15.872Z,56.70
2019-01-22T03:13:34.868Z,56.50
2019-01-22T03:16:44.392Z,56.60
2019-01-22T03:19:51.945Z,56.60
2019-01-22T03:23:02.148Z,56.70
2019-01-22T03:25:49.209Z,56.50
2019-01-22T03:28:47.021Z,56.50
2019-01-22T03:32:27.609Z,56.40
2019-01-22T03:35:51.565Z,56.80
2019-01-22T03:38:49.680Z,56.30
2019-01-22T03:41:43.089Z,56.40
2019-01-22T03:44:54.624Z,56.50
2019-01-22T03:47:37.866Z,56.30
2019-01-22T03:50:24.021Z,56.20
2019-01-22T03:53:53.688Z,56.30
2019-01-22T03:56:51.477Z,56.20
2019-01-22T03:59:20.192Z,56.20
2019-01-22T04:01:48.997Z,56.10
2019-01-22T04:04:17.595Z,56.00
2019-01-22T04:06:54.645Z,55.90
2019-01-22T04:09:29.746Z,55.90
2019-01-22T04:11:58.647Z,55.80
2019-01-22T04:14:27.537Z,55.70
2019-01-22T04:16:56.238Z,55.70
2019-01-22T04:19:24.847Z,55.80
2019-01-22T04:21:53.779Z,55.80
2019-01-22T04:24:52.367Z,55.70
2019-01-22T04:27:52.131Z,55.60
2019-01-22T04:30:36.839Z,55.60
2019-01-22T04:33:53.562Z,55.60
2019-01-22T04:36:48.405Z,55.40
2019-01-22T04:40:09.202Z,55.30
2019-01-22T04:43:15.079Z,55.50
2019-01-22T04:46:10.436Z,55.50
2019-01-22T04:48:58.216Z,55.40
2019-01-22T04:52:10.960Z,55.10
2019-01-22T04:55:06.418Z,55.20
2019-01-22T04:57:50.958Z,55.00
2019-01-22T05:00:54.352Z,54.90
2019-01-22T05:03:48.613Z,54.90
2019-01-22T05:06:39.006Z,54.90
2019-01-22T05:09:35.892Z,54.70
2019-01-22T05:12:30.519Z,54.70
2019-01-22T05:15:52.716Z,54.80
2019-01-22T05:18:50.364Z,54.90
2019-01-22T05:21:46.587Z,54.90
2019-01-22T05:24:35.258Z,55.00
2019-01-22T05:27:51.788Z,55.00
2019-01-22T05:30:45.785Z,55.00
2019-01-22T05:34:01.938Z,55.20
2019-01-22T05:36:38.628Z,55.20
2019-01-22T05:39:26.772Z,55.20
2019-01-22T05:42:31.780Z,55.30
2019-01-22T05:45:19.136Z,55.30
2019-01-22T05:48:15.189Z,55.20
2019-01-22T05:51:09.990Z,55.10
2019-01-22T05:54:25.116Z,55.20
2019-01-22T05:56:57.618Z,55.10
2019-01-22T05:59:43.496Z,55.20
2019-01-22T06:02:37.045Z,55.20
2019-01-22T06:05:49.072Z,55.10
2019-01-22T06:08:58.816Z,55.20
2019-01-22T06:12:07.140Z,55.20
2019-01-22T06:14:51.390Z,55.20
2019-01-22T06:18:00.162Z,55.20
2019-01-22T06:20:57.331Z,55.10
2019-01-22T06:23:51.366Z,55.00
2019-01-22T06:26:43.055Z,55.10
2019-01-22T06:30:08.043Z,55.00
2019-01-22T06:33:01.326Z,54.90
2019-01-22T06:36:07.522Z,54.80
2019-01-22T06:39:04.831Z,54.80
2019-01-22T06:42:05.965Z,54.80
2019-01-22T06:45:11.017Z,54.90
2019-01-22T06:48:16.525Z,54.90
2019-01-22T06:51:17.120Z,54.80
2019-01-22T06:54:13.453Z,54.60
2019-01-22T06:56:53.511Z,54.70
2019-01-22T06:59:56.936Z,54.80
2019-01-22T07:03:11.697Z,55.20
2019-01-22T07:05:51.297Z,54.70
2019-01-22T07:09:01.713Z,54.80
2019-01-22T07:12:09.156Z,54.70
2019-01-22T07:15:20.553Z,54.70
2019-01-22T07:18:15.592Z,54.50
2019-01-22T07:21:33.660Z,54.50
2019-01-22T07:24:18.081Z,54.70
2019-01-22T07:27:01.032Z,54.60
2019-01-22T07:29:49.280Z,54.70
2019-01-22T07:32:59.419Z,54.40
2019-01-22T07:35:43.214Z,54.40
2019-01-22T07:38:27.092Z,54.40
2019-01-22T07:41:49.091Z,54.50
2019-01-22T07:44:40.664Z,54.50
2019-01-22T07:47:37.955Z,54.50
2019-01-22T07:50:33.288Z,54.50
2019-01-22T07:53:40.880Z,54.70
2019-01-22T07:56:38.907Z,54.60
2019-01-22T07:59:54.067Z,54.60
2019-01-22T08:03:02.437Z,54.60
2019-01-22T08:06:09.177Z,54.60
2019-01-22T08:09:08.560Z,54.40
2019-01-22T08:12:18.258Z,54.60
2019-01-22T08:15:27.118Z,54.70
2019-01-22T08:18:10.666Z,54.50
2019-01-22T08:20:51.020Z,54.60
2019-01-22T08:24:00.360Z,54.60
2019-01-22T08:27:10.540Z,54.60
2019-01-22T08:30:17.808Z,54.60
2019-01-22T08:33:05.288Z,54.60
2019-01-22T08:36:00.576Z,54.70
2019-01-22T08:39:05.920Z,54.70
2019-01-22T08:42:10.570Z,54.60
2019-01-22T08:45:45.266Z,54.50
2019-01-22T08:49:07.221Z,54.60
2019-01-22T08:52:09.974Z,54.40
2019-01-22T08:55:08.594Z,54.20
2019-01-22T08:58:02.764Z,54.30
2019-01-22T09:00:57.213Z,54.20
2019-01-22T09:04:00.585Z,54.40
2019-01-22T09:06:42.164Z,54.60
2019-01-22T09:09:35.553Z,54.40
2019-01-22T09:12:43.852Z,54.20
2019-01-22T09:16:05.796Z,54.30
2019-01-22T09:19:11.533Z,54.40
2019-01-22T09:22:17.565Z,54.40
2019-01-22T09:24:59.930Z,54.60
2019-01-22T09:27:50.826Z,54.60
2019-01-22T09:30:39.116Z,54.70
2019-01-22T09:33:20.332Z,54.70
2019-01-22T09:36:14.195Z,54.70
2019-01-22T09:38:43.084Z,54.60
2019-01-22T09:41:11.682Z,54.50
2019-01-22T09:43:40.272Z,54.20
2019-01-22T09:46:09.160Z,54.20
2019-01-22T09:48:38.008Z,54.30
2019-01-22T09:51:06.607Z,54.30
2019-01-22T09:53:35.452Z,54.20
2019-01-22T09:56:04.216Z,54.30
2019-01-22T09:58:32.833Z,54.30
2019-01-22T10:01:01.441Z,53.10
2019-01-22T10:03:30.320Z,52.80
2019-01-22T10:05:58.915Z,52.70
2019-01-22T10:08:27.505Z,52.60
2019-01-22T10:10:56.354Z,52.30
2019-01-22T10:13:25.304Z,51.90
2019-01-22T10:15:54.157Z,51.80
2019-01-22T10:18:22.743Z,51.80
2019-01-22T10:20:51.353Z,51.70
2019-01-22T10:23:19.924Z,51.50
2019-01-22T10:25:48.848Z,51.60
2019-01-22T10:28:17.436Z,51.30
2019-01-22T10:30:46.054Z,51.20
2019-01-22T10:33:14.653Z,51.10
2019-01-22T10:35:43.252Z,51.20
2019-01-22T10:38:11.892Z,51.10
2019-01-22T10:40:40.510Z,51.20
2019-01-22T10:43:09.653Z,51.30
2019-01-22T10:45:38.541Z,51.10
2019-01-22T10:48:07.593Z,51.00
2019-01-22T10:50:36.252Z,50.90
2019-01-22T10:53:04.907Z,50.70
2019-01-22T10:55:36.394Z,50.40
2019-01-22T10:58:03.926Z,50.30
2019-01-22T11:00:32.869Z,50.20
2019-01-22T11:03:01.501Z,50.10
2019-01-22T11:05:35.127Z,50.20
2019-01-22T11:08:03.982Z,49.90
2019-01-22T11:10:32.649Z,49.90
2019-01-22T11:13:01.277Z,49.60
2019-01-22T11:15:30.149Z,49.50
2019-01-22T11:17:58.744Z,49.40
2019-01-22T11:20:28.188Z,49.30
2019-01-22T11:22:56.792Z,48.80
2019-01-22T11:25:26.810Z,48.50
2019-01-22T11:27:55.646Z,48.00
2019-01-22T11:30:24.415Z,47.10
2019-01-22T11:32:52.991Z,46.90
2019-01-22T11:35:22.362Z,47.10
2019-01-22T11:37:51.800Z,46.70
2019-01-22T11:40:49.977Z,45.80
2019-01-22T11:43:18.688Z,45.00
2019-01-22T11:45:47.317Z,44.50
2019-01-22T11:48:16.186Z,44.50
2019-01-22T11:50:45.044Z,45.10
2019-01-22T11:53:13.669Z,45.40
2019-01-22T11:55:42.286Z,45.00
2019-01-22T11:58:10.908Z,44.50
2019-01-22T12:00:58.632Z,43.90
2019-01-22T12:03:27.241Z,43.00
2019-01-22T12:05:55.838Z,42.80
2019-01-22T12:08:24.450Z,42.60
2019-01-22T12:10:53.043Z,41.70
2019-01-22T12:13:21.684Z,40.50
2019-01-22T12:15:50.547Z,39.10
2019-01-22T12:18:19.474Z,38.30
2019-01-22T12:20:48.852Z,36.70
2019-01-22T12:23:17.493Z,36.70
2019-01-22T12:25:46.096Z,35.20
2019-01-22T12:28:15.440Z,35.50
2019-01-22T12:30:45.308Z,37.20
2019-01-22T12:33:13.924Z,37.30
2019-01-22T12:35:43.044Z,36.00
2019-01-22T12:38:11.671Z,34.00
2019-01-22T12:40:40.296Z,33.10
2019-01-22T12:43:08.950Z,33.10
2019-01-22T12:45:38.817Z,32.90
2019-01-22T12:48:08.741Z,32.50
2019-01-22T12:50:38.124Z,33.50
2019-01-22T12:53:08.498Z,34.50
2019-01-22T12:55:37.368Z,34.40
2019-01-22T12:58:05.989Z,33.40
2019-01-22T13:00:34.876Z,32.90
2019-01-22T13:03:03.496Z,32.70
2019-01-22T13:05:41.735Z,32.80
2019-01-22T13:08:10.343Z,33.00
2019-01-22T13:10:38.976Z,33.60
2019-01-22T13:13:07.547Z,34.80
2019-01-22T13:15:36.397Z,36.10
2019-01-22T13:18:05.292Z,36.70
2019-01-22T13:20:33.917Z,37.30
2019-01-22T13:23:02.523Z,37.70
2019-01-22T13:25:31.128Z,38.20
2019-01-22T13:28:00.032Z,39.00
2019-01-22T13:30:28.809Z,39.70
2019-01-22T13:32:57.454Z,40.60
2019-01-22T13:35:26.089Z,41.10
2019-01-22T13:37:54.985Z,41.80
2019-01-22T13:40:23.570Z,42.10
2019-01-22T13:42:52.176Z,42.40
2019-01-22T13:45:22.877Z,42.20
2019-01-22T13:47:52.005Z,41.90
2019-01-22T13:50:20.709Z,42.00
2019-01-22T13:52:49.344Z,42.00
2019-01-22T13:55:20.805Z,42.10
2019-01-22T13:57:49.435Z,42.30
2019-01-22T14:00:19.880Z,42.20
2019-01-22T14:02:48.608Z,42.60
2019-01-22T14:05:17.220Z,42.90
2019-01-22T14:07:45.842Z,42.90
2019-01-22T14:10:14.466Z,43.50
2019-01-22T14:12:43.045Z,43.80
2019-01-22T14:15:14.853Z,43.90
2019-01-22T14:17:43.952Z,43.90
2019-01-22T14:20:12.792Z,44.10
2019-01-22T14:22:41.634Z,44.20
2019-01-22T14:25:11.490Z,44.60
2019-01-22T14:27:51.379Z,44.70
2019-01-22T14:30:32.145Z,44.90
2019-01-22T14:33:03.633Z,45.10
2019-01-22T14:35:37.765Z,45.20
2019-01-22T14:38:06.416Z,45.50
2019-01-22T14:40:35.140Z,45.70
2019-01-22T14:43:03.785Z,45.60
2019-01-22T14:45:42.043Z,45.70
2019-01-22T14:48:11.424Z,45.70
2019-01-22T14:50:44.865Z,45.90
2019-01-22T14:53:13.476Z,45.90
2019-01-22T14:55:42.069Z,45.90
2019-01-22T14:58:10.946Z,45.80
2019-01-22T15:00:49.332Z,45.70
2019-01-22T15:03:17.957Z,45.80
2019-01-22T15:05:46.577Z,46.00
2019-01-22T15:08:15.227Z,46.10
2019-01-22T15:10:43.805Z,46.10
2019-01-22T15:13:12.432Z,46.20
2019-01-22T15:15:41.029Z,46.40
2019-01-22T15:18:09.613Z,46.40
2019-01-22T15:20:38.225Z,46.40
2019-01-22T15:23:06.825Z,46.40
2019-01-22T15:25:35.441Z,46.40
2019-01-22T15:28:04.050Z,46.50
2019-01-22T15:30:34.696Z,46.60
2019-01-22T15:33:03.613Z,46.60
2019-01-22T15:35:32.253Z,46.80
2019-01-22T15:38:00.871Z,46.80
2019-01-22T15:40:30.336Z,47.00
2019-01-22T15:42:58.936Z,47.00
2019-01-22T15:45:28.398Z,47.20
2019-01-22T15:47:57.284Z,47.40
2019-01-22T15:50:26.051Z,47.40
2019-01-22T15:52:54.707Z,47.50
2019-01-22T15:55:25.813Z,47.70
2019-01-22T15:57:54.496Z,47.80
2019-01-22T16:00:23.471Z,47.90
2019-01-22T16:02:52.092Z,47.90
2019-01-22T16:05:20.678Z,48.00
2019-01-22T16:07:49.261Z,48.10
2019-01-22T16:10:17.871Z,48.30
2019-01-22T16:12:46.769Z,48.20
2019-01-22T16:15:17.166Z,48.20
2019-01-22T16:17:45.812Z,48.40
2019-01-22T16:20:16.737Z,48.50
2019-01-22T16:22:45.343Z,48.50
2019-01-22T16:25:14.024Z,48.60
2019-01-22T16:27:42.635Z,48.40
2019-01-22T16:30:13.783Z,48.60
2019-01-22T16:32:42.377Z,48.50
2019-01-22T16:35:12.252Z,48.50
2019-01-22T16:37:40.933Z,48.50
2019-01-22T16:40:10.636Z,48.30
2019-01-22T16:42:39.240Z,48.40
2019-01-22T16:45:11.049Z,48.40
2019-01-22T16:47:39.660Z,48.50
2019-01-22T16:50:10.653Z,48.50
2019-01-22T16:52:39.310Z,48.50
2019-01-22T16:55:10.895Z,48.60
2019-01-22T16:57:39.748Z,49.20
2019-01-22T17:00:12.536Z,48.50
2019-01-22T17:02:41.177Z,48.60
2019-01-22T17:05:09.777Z,48.60
2019-01-22T17:07:38.661Z,48.40
2019-01-22T17:10:09.528Z,48.60
2019-01-22T17:12:38.426Z,48.80
2019-01-22T17:15:08.025Z,48.60
2019-01-22T17:17:36.625Z,48.60
2019-01-22T17:20:07.883Z,48.70
2019-01-22T17:22:36.525Z,48.70
2019-01-22T17:25:06.805Z,48.70
2019-01-22T17:27:35.464Z,48.70
2019-01-22T17:30:05.548Z,48.60
2019-01-22T17:32:43.676Z,48.70
2019-01-22T17:35:12.556Z,48.70
2019-01-22T17:37:41.147Z,48.60
2019-01-22T17:40:10.736Z,48.70
2019-01-22T17:42:44.767Z,48.70
2019-01-22T17:45:13.383Z,48.90
2019-01-22T17:47:42.015Z,48.90
2019-01-22T17:50:11.269Z,48.90
2019-01-22T17:52:40.136Z,50.00
2019-01-22T17:55:09.451Z,50.10
2019-01-22T17:57:38.135Z,50.10
2019-01-22T18:00:09.945Z,50.10
2019-01-22T18:02:38.560Z,50.10
2019-01-22T18:05:08.509Z,50.20
2019-01-22T18:07:37.108Z,50.40
2019-01-22T18:10:06.136Z,50.30
2019-01-22T18:12:34.736Z,50.30
2019-01-22T18:15:03.330Z,50.20
2019-01-22T18:17:32.280Z,50.20
2019-01-22T18:20:00.874Z,50.40
2019-01-22T18:22:29.797Z,50.30
2019-01-22T18:24:58.480Z,50.30
2019-01-22T18:27:27.632Z,50.40
2019-01-22T18:29:56.224Z,50.40
2019-01-22T18:32:24.844Z,50.60
2019-01-22T18:34:53.475Z,50.50
2019-01-22T18:37:23.616Z,50.50
2019-01-22T18:39:52.364Z,50.70
2019-01-22T18:42:21.069Z,50.80
2019-01-22T18:44:49.683Z,50.90
2019-01-22T18:47:18.620Z,50.60
2019-01-22T18:49:47.207Z,50.50
2019-01-22T18:52:15.817Z,50.60
2019-01-22T18:54:44.432Z,50.60
2019-01-22T18:57:13.124Z,50.50
2019-01-22T18:59:41.748Z,50.40
2019-01-22T19:02:10.405Z,50.30
2019-01-22T19:04:39.093Z,50.20
2019-01-22T19:07:07.940Z,50.30
2019-01-22T19:09:36.572Z,50.10
2019-01-22T19:12:05.176Z,50.20
2019-01-22T19:14:33.795Z,50.10
2019-01-22T19:17:02.404Z,50.00
2019-01-22T19:19:31.012Z,49.90
2019-01-22T19:22:01.356Z,49.80
2019-01-22T19:24:30.356Z,49.90
2019-01-22T19:26:58.936Z,50.10
2019-01-22T19:29:29.500Z,50.10
2019-01-22T19:31:58.130Z,50.00
2019-01-22T19:34:26.989Z,49.80
2019-01-22T19:36:55.634Z,50.10
2019-01-22T19:39:24.236Z,50.00
2019-01-22T19:41:52.961Z,50.00
2019-01-22T19:44:21.572Z,50.20
2019-01-22T19:46:50.168Z,50.00
2019-01-22T19:49:18.808Z,50.00
2019-01-22T19:51:47.433Z,49.90
2019-01-22T19:54:16.331Z,49.90
2019-01-22T19:56:44.936Z,50.10
2019-01-22T19:59:13.572Z,50.10
2019-01-22T20:01:42.207Z,50.10
2019-01-22T20:04:10.829Z,50.00
2019-01-22T20:06:39.790Z,50.10
2019-01-22T20:09:09.922Z,50.20
2019-01-22T20:11:41.549Z,50.00
2019-01-22T20:14:10.163Z,49.90
2019-01-22T20:16:39.062Z,50.00
2019-01-22T20:19:07.796Z,50.10
2019-01-22T20:21:36.396Z,50.10
2019-01-22T20:24:05.274Z,50.10
2019-01-22T20:26:33.862Z,50.20
2019-01-22T20:29:02.496Z,50.30
2019-01-22T20:31:31.125Z,50.30
2019-01-22T20:33:59.797Z,50.40
2019-01-22T20:36:28.659Z,50.50
2019-01-22T20:38:57.368Z,51.40
2019-01-22T20:41:26.016Z,50.70
2019-01-22T20:43:54.600Z,50.80
2019-01-22T20:46:23.490Z,50.90
2019-01-22T20:48:52.081Z,50.90
2019-01-22T20:51:20.758Z,51.00
2019-01-22T20:53:49.394Z,51.00
2019-01-22T20:56:17.976Z,51.20
2019-01-22T20:58:46.836Z,51.10
2019-01-22T21:01:15.679Z,51.20
2019-01-22T21:03:44.281Z,51.20
2019-01-22T21:06:12.922Z,51.50
2019-01-22T21:08:41.509Z,51.50
2019-01-22T21:11:10.099Z,51.40
2019-01-22T21:13:38.703Z,51.20
2019-01-22T21:16:07.308Z,51.20
2019-01-22T21:18:36.210Z,51.40
2019-01-22T21:21:04.807Z,51.40
2019-01-22T21:23:33.401Z,51.40
2019-01-22T21:26:02.006Z,51.50
2019-01-22T21:28:30.867Z,51.50
2019-01-22T21:30:59.460Z,51.40
2019-01-22T21:33:28.106Z,51.40
2019-01-22T21:35:56.693Z,51.40
2019-01-22T21:38:25.344Z,51.60
2019-01-22T21:40:54.215Z,51.70
2019-01-22T21:43:22.857Z,51.70
2019-01-22T21:45:51.676Z,51.50
2019-01-22T21:48:20.285Z,51.60
2019-01-22T21:50:48.887Z,51.70
2019-01-22T21:53:17.521Z,51.60
2019-01-22T21:55:46.166Z,51.50
2019-01-22T21:58:15.052Z,51.50
2019-01-22T22:00:43.679Z,51.40
2019-01-22T22:03:12.604Z,51.30
2019-01-22T22:05:42.553Z,51.40
2019-01-22T22:08:11.151Z,51.50
2019-01-22T22:10:39.764Z,51.60
2019-01-22T22:13:08.797Z,51.60
2019-01-22T22:15:37.677Z,51.50
2019-01-22T22:18:06.285Z,51.60
2019-01-22T22:20:34.911Z,51.40
2019-01-22T22:23:03.537Z,51.40
2019-01-22T22:25:39.657Z,51.30
2019-01-22T22:28:08.275Z,51.30
2019-01-22T22:30:37.388Z,51.30
2019-01-22T22:33:06.012Z,51.40
2019-01-22T22:35:34.614Z,51.20
2019-01-22T22:38:03.260Z,51.50
2019-01-22T22:40:31.896Z,51.50
2019-01-22T22:43:00.776Z,51.50
2019-01-22T22:45:29.376Z,51.50
2019-01-22T22:47:57.979Z,51.60
2019-01-22T22:50:28.685Z,51.60
2019-01-22T22:52:57.294Z,51.90
2019-01-22T22:55:25.887Z,52.00
2019-01-22T22:57:54.477Z,52.10
2019-01-22T23:00:41.852Z,52.20
2019-01-22T23:03:10.711Z,52.20
2019-01-22T23:05:39.687Z,52.40
2019-01-22T23:08:08.550Z,52.50
2019-01-22T23:10:37.151Z,52.60
2019-01-22T23:13:05.923Z,52.50
2019-01-22T23:15:34.602Z,52.30
2019-01-22T23:18:03.184Z,52.30
2019-01-22T23:20:32.320Z,52.30
2019-01-22T23:23:00.996Z,52.20
2019-01-22T23:25:29.651Z,52.30
2019-01-22T23:27:58.315Z,52.30
2019-01-22T23:30:27.007Z,52.40
2019-01-22T23:32:55.608Z,52.40
2019-01-22T23:35:24.475Z,52.50
2019-01-22T23:37:53.089Z,52.50
2019-01-22T23:40:21.747Z,52.40
2019-01-22T23:42:50.362Z,52.30
2019-01-22T23:45:18.984Z,52.30
2019-01-22T23:47:47.585Z,52.10
2019-01-22T23:50:16.236Z,52.10
2019-01-22T23:52:44.881Z,52.10
2019-01-22T23:55:13.732Z,52.30
2019-01-22T23:57:42.332Z,52.10
